sensor_id;sensor_type;location;lat;lon;timestamp;pressure;altitude;pressure_sealevel;temperature;humidity
9059;BME280;4564;42.034;25.834;2023-03-01T00:02:07;101028.66;;;5.92;100.00
9059;BME280;4564;42.034;25.834;2023-03-01T00:04:33;101031.78;;;5.97;100.00
9059;BME280;4564;42.034;25.834;2023-03-01T00:07:00;101031.78;;;5.97;100.00
9059;BME280;4564;42.034;25.834;2023-03-01T00:09:29;101021.88;;;5.97;100.00
9059;BME280;4564;42.034;25.834;2023-03-01T00:11:56;101012.78;;;5.98;100.00
9059;BME280;4564;42.034;25.834;2023-03-01T00:14:23;101007.25;;;6.00;100.00
9059;BME280;4564;42.034;25.834;2023-03-01T00:16:49;100993.66;;;6.01;100.00
9059;BME280;4564;42.034;25.834;2023-03-01T00:19:17;100985.84;;;5.98;100.00
9059;BME280;4564;42.034;25.834;2023-03-01T00:21:44;100983.84;;;5.90;100.00
9059;BME280;4564;42.034;25.834;2023-03-01T00:24:11;100994.94;;;5.97;100.00
9059;BME280;4564;42.034;25.834;2023-03-01T00:26:39;101002.28;;;5.95;100.00
9059;BME280;4564;42.034;25.834;2023-03-01T00:29:06;100997.19;;;5.92;100.00
9059;BME280;4564;42.034;25.834;2023-03-01T00:31:32;100993.22;;;5.96;100.00
9059;BME280;4564;42.034;25.834;2023-03-01T00:34:00;101005.97;;;5.94;100.00
9059;BME280;4564;42.034;25.834;2023-03-01T00:36:28;101003.44;;;5.93;100.00
9059;BME280;4564;42.034;25.834;2023-03-01T00:38:54;100990.75;;;5.83;100.00
9059;BME280;4564;42.034;25.834;2023-03-01T00:41:21;101001.41;;;5.85;100.00
9059;BME280;4564;42.034;25.834;2023-03-01T00:43:49;100996.75;;;5.87;100.00
9059;BME280;4564;42.034;25.834;2023-03-01T00:46:17;100993.19;;;5.86;100.00
9059;BME280;4564;42.034;25.834;2023-03-01T00:48:44;100982.31;;;5.88;100.00
9059;BME280;4564;42.034;25.834;2023-03-01T00:51:11;100973.94;;;5.91;100.00
9059;BME280;4564;42.034;25.834;2023-03-01T00:53:38;100992.78;;;6.01;100.00
9059;BME280;4564;42.034;25.834;2023-03-01T00:56:05;100971.97;;;5.93;100.00
9059;BME280;4564;42.034;25.834;2023-03-01T00:58:32;100972.38;;;5.98;100.00
9059;BME280;4564;42.034;25.834;2023-03-01T01:01:01;100978.47;;;6.00;100.00
9059;BME280;4564;42.034;25.834;2023-03-01T01:03:38;100966.84;;;6.00;100.00
9059;BME280;4564;42.034;25.834;2023-03-01T01:06:04;100968.97;;;6.06;100.00
9059;BME280;4564;42.034;25.834;2023-03-01T01:08:34;100973.81;;;6.02;100.00
9059;BME280;4564;42.034;25.834;2023-03-01T01:11:01;100970.69;;;5.97;100.00
9059;BME280;4564;42.034;25.834;2023-03-01T01:13:27;100962.59;;;5.97;100.00
9059;BME280;4564;42.034;25.834;2023-03-01T01:15:54;100952.53;;;5.99;100.00
9059;BME280;4564;42.034;25.834;2023-03-01T01:18:22;100952.66;;;6.07;100.00
9059;BME280;4564;42.034;25.834;2023-03-01T01:20:48;100946.13;;;6.00;100.00
9059;BME280;4564;42.034;25.834;2023-03-01T01:23:15;100947.97;;;6.00;100.00
9059;BME280;4564;42.034;25.834;2023-03-01T01:25:41;100948.28;;;5.97;100.00
9059;BME280;4564;42.034;25.834;2023-03-01T01:28:08;100944.72;;;5.96;100.00
9059;BME280;4564;42.034;25.834;2023-03-01T01:30:35;100936.78;;;5.95;100.00
9059;BME280;4564;42.034;25.834;2023-03-01T01:33:01;100949.25;;;5.96;100.00
9059;BME280;4564;42.034;25.834;2023-03-01T01:35:29;100954.66;;;6.05;100.00
9059;BME280;4564;42.034;25.834;2023-03-01T01:37:58;100952.25;;;6.02;100.00
9059;BME280;4564;42.034;25.834;2023-03-01T01:40:24;100949.00;;;5.99;100.00
9059;BME280;4564;42.034;25.834;2023-03-01T01:42:51;100949.84;;;5.99;100.00
9059;BME280;4564;42.034;25.834;2023-03-01T01:45:28;100956.34;;;6.06;100.00
9059;BME280;4564;42.034;25.834;2023-03-01T01:47:56;100958.06;;;6.07;100.00
9059;BME280;4564;42.034;25.834;2023-03-01T01:50:23;100950.13;;;6.06;100.00
9059;BME280;4564;42.034;25.834;2023-03-01T01:52:52;100945.72;;;5.95;100.00
9059;BME280;4564;42.034;25.834;2023-03-01T01:55:20;100948.28;;;5.97;100.00
9059;BME280;4564;42.034;25.834;2023-03-01T01:57:50;100949.00;;;6.08;100.00
9059;BME280;4564;42.034;25.834;2023-03-01T02:00:19;100952.66;;;6.07;100.00
9059;BME280;4564;42.034;25.834;2023-03-01T02:02:46;100956.34;;;6.06;100.00
9059;BME280;4564;42.034;25.834;2023-03-01T02:05:17;100957.38;;;6.15;100.00
9059;BME280;4564;42.034;25.834;2023-03-01T02:07:47;100953.25;;;6.20;100.00
9059;BME280;4564;42.034;25.834;2023-03-01T02:10:16;100956.06;;;6.19;100.00
9059;BME280;4564;42.034;25.834;2023-03-01T02:12:43;100946.00;;;6.11;100.00
9059;BME280;4564;42.034;25.834;2023-03-01T02:15:10;100944.03;;;6.04;100.00
9059;BME280;4564;42.034;25.834;2023-03-01T02:17:36;100944.59;;;6.07;100.00
9059;BME280;4564;42.034;25.834;2023-03-01T02:20:07;100942.63;;;6.09;100.00
9059;BME280;4564;42.034;25.834;2023-03-01T02:22:38;100939.22;;;5.98;100.00
9059;BME280;4564;42.034;25.834;2023-03-01T02:25:07;100932.13;;;5.97;100.00
9059;BME280;4564;42.034;25.834;2023-03-01T02:27:40;100933.41;;;5.93;100.00
9059;BME280;4564;42.034;25.834;2023-03-01T02:30:13;100933.84;;;5.88;100.00
9059;BME280;4564;42.034;25.834;2023-03-01T02:32:40;100929.84;;;5.92;100.00
9059;BME280;4564;42.034;25.834;2023-03-01T02:35:08;100932.53;;;5.92;100.00
9059;BME280;4564;42.034;25.834;2023-03-01T02:37:35;100926.59;;;5.98;100.00
9059;BME280;4564;42.034;25.834;2023-03-01T02:40:03;100925.88;;;5.96;100.00
9059;BME280;4564;42.034;25.834;2023-03-01T02:42:32;100921.34;;;5.97;100.00
9059;BME280;4564;42.034;25.834;2023-03-01T02:45:00;100921.47;;;5.95;100.00
9059;BME280;4564;42.034;25.834;2023-03-01T02:47:28;100928.00;;;5.93;100.00
9059;BME280;4564;42.034;25.834;2023-03-01T02:49:54;100922.03;;;5.89;100.00
9059;BME280;4564;42.034;25.834;2023-03-01T02:52:33;100923.75;;;5.90;100.00
9059;BME280;4564;42.034;25.834;2023-03-01T02:55:04;100928.00;;;5.93;100.00
9059;BME280;4564;42.034;25.834;2023-03-01T02:57:33;100929.13;;;5.90;100.00
9059;BME280;4564;42.034;25.834;2023-03-01T03:00:02;100923.75;;;5.90;100.00
9059;BME280;4564;42.034;25.834;2023-03-01T03:02:33;100927.84;;;5.94;100.00
9059;BME280;4564;42.034;25.834;2023-03-01T03:05:04;100919.22;;;5.90;100.00
9059;BME280;4564;42.034;25.834;2023-03-01T03:07:33;100919.59;;;5.86;100.00
9059;BME280;4564;42.034;25.834;2023-03-01T03:10:00;100919.06;;;5.82;100.00
9059;BME280;4564;42.034;25.834;2023-03-01T03:12:27;100920.06;;;5.91;100.00
9059;BME280;4564;42.034;25.834;2023-03-01T03:14:53;100922.03;;;5.89;100.00
9059;BME280;4564;42.034;25.834;2023-03-01T03:17:20;100914.97;;;5.88;100.00
9059;BME280;4564;42.034;25.834;2023-03-01T03:19:48;100921.78;;;5.92;100.00
9059;BME280;4564;42.034;25.834;2023-03-01T03:22:15;100916.81;;;5.87;100.00
9059;BME280;4564;42.034;25.834;2023-03-01T03:24:41;100912.28;;;5.88;100.00
9059;BME280;4564;42.034;25.834;2023-03-01T03:27:08;100916.50;;;6.00;100.00
9059;BME280;4564;42.034;25.834;2023-03-01T03:29:35;100917.53;;;5.99;100.00
9059;BME280;4564;42.034;25.834;2023-03-01T03:32:01;100915.09;;;5.96;100.00
9059;BME280;4564;42.034;25.834;2023-03-01T03:34:28;100927.59;;;5.97;100.00
9059;BME280;4564;42.034;25.834;2023-03-01T03:36:56;100919.38;;;5.99;100.00
9059;BME280;4564;42.034;25.834;2023-03-01T03:39:25;100922.47;;;5.94;100.00
9059;BME280;4564;42.034;25.834;2023-03-01T03:41:51;100921.22;;;5.98;100.00
9059;BME280;4564;42.034;25.834;2023-03-01T03:44:18;100926.28;;;6.01;100.00
9059;BME280;4564;42.034;25.834;2023-03-01T03:46:44;100907.03;;;5.96;100.00
9059;BME280;4564;42.034;25.834;2023-03-01T03:49:28;100900.50;;;5.99;100.00
9059;BME280;4564;42.034;25.834;2023-03-01T03:51:56;100906.47;;;5.93;100.00
9059;BME280;4564;42.034;25.834;2023-03-01T03:54:23;100900.50;;;5.89;100.00
9059;BME280;4564;42.034;25.834;2023-03-01T03:56:49;100899.06;;;5.95;100.00
9059;BME280;4564;42.034;25.834;2023-03-01T03:59:16;100907.31;;;5.93;100.00
9059;BME280;4564;42.034;25.834;2023-03-01T04:01:42;100889.72;;;5.89;100.00
9059;BME280;4564;42.034;25.834;2023-03-01T04:04:26;100893.28;;;5.99;100.00
9059;BME280;4564;42.034;25.834;2023-03-01T04:06:53;100891.41;;;6.00;100.00
9059;BME280;4564;42.034;25.834;2023-03-01T04:09:21;100898.22;;;5.94;100.00
9059;BME280;4564;42.034;25.834;2023-03-01T04:11:47;100891.00;;;6.04;100.00
9059;BME280;4564;42.034;25.834;2023-03-01T04:14:14;100889.13;;;6.05;100.00
9059;BME280;4564;42.034;25.834;2023-03-01T04:16:41;100882.63;;;6.07;100.00
9059;BME280;4564;42.034;25.834;2023-03-01T04:19:07;100876.09;;;6.00;100.00
9059;BME280;4564;42.034;25.834;2023-03-01T04:21:34;100877.53;;;6.04;100.00
9059;BME280;4564;42.034;25.834;2023-03-01T04:24:01;100874.53;;;6.07;100.00
9059;BME280;4564;42.034;25.834;2023-03-01T04:26:30;100891.56;;;6.08;100.00
9059;BME280;4564;42.034;25.834;2023-03-01T04:28:56;100878.97;;;5.99;100.00
9059;BME280;4564;42.034;25.834;2023-03-01T04:31:23;100883.50;;;5.98;100.00
9059;BME280;4564;42.034;25.834;2023-03-01T04:33:50;100885.78;;;5.93;100.00
9059;BME280;4564;42.034;25.834;2023-03-01T04:36:18;100892.84;;;6.04;100.00
9059;BME280;4564;42.034;25.834;2023-03-01T04:38:45;100888.88;;;5.98;100.00
9059;BME280;4564;42.034;25.834;2023-03-01T04:41:13;100903.47;;;5.96;100.00
9059;BME280;4564;42.034;25.834;2023-03-01T04:43:41;100900.75;;;5.86;100.00
9059;BME280;4564;42.034;25.834;2023-03-01T04:46:09;100914.38;;;5.94;100.00
9059;BME280;4564;42.034;25.834;2023-03-01T04:48:37;100909.28;;;5.91;100.00
9059;BME280;4564;42.034;25.834;2023-03-01T04:51:04;100905.88;;;5.89;100.00
9059;BME280;4564;42.034;25.834;2023-03-01T04:53:32;100906.59;;;5.91;100.00
9059;BME280;4564;42.034;25.834;2023-03-01T04:56:01;100910.97;;;5.82;100.00
9059;BME280;4564;42.034;25.834;2023-03-01T04:58:28;100889.03;;;5.87;100.00
9059;BME280;4564;42.034;25.834;2023-03-01T05:00:56;100897.34;;;5.84;100.00
9059;BME280;4564;42.034;25.834;2023-03-01T05:03:22;100896.22;;;5.86;100.00
9059;BME280;4564;42.034;25.834;2023-03-01T05:05:50;100904.19;;;5.88;100.00
9059;BME280;4564;42.034;25.834;2023-03-01T05:08:17;100907.97;;;5.85;100.00
9059;BME280;4564;42.034;25.834;2023-03-01T05:10:44;100898.81;;;5.88;100.00
9059;BME280;4564;42.034;25.834;2023-03-01T05:13:11;100905.88;;;5.89;100.00
9059;BME280;4564;42.034;25.834;2023-03-01T05:15:38;100918.50;;;5.88;100.00
9059;BME280;4564;42.034;25.834;2023-03-01T05:18:06;100910.38;;;5.79;100.00
9059;BME280;4564;42.034;25.834;2023-03-01T05:20:36;100907.44;;;5.82;100.00
9059;BME280;4564;42.034;25.834;2023-03-01T05:23:03;100913.28;;;5.87;100.00
9059;BME280;4564;42.034;25.834;2023-03-01T05:25:31;100906.16;;;5.86;100.00
9059;BME280;4564;42.034;25.834;2023-03-01T05:27:58;100907.44;;;5.82;100.00
9059;BME280;4564;42.034;25.834;2023-03-01T05:30:28;100904.00;;;5.80;100.00
9059;BME280;4564;42.034;25.834;2023-03-01T05:32:55;100904.75;;;5.82;100.00
9059;BME280;4564;42.034;25.834;2023-03-01T05:35:23;100909.59;;;5.88;100.00
9059;BME280;4564;42.034;25.834;2023-03-01T05:37:49;100916.38;;;5.92;100.00
9059;BME280;4564;42.034;25.834;2023-03-01T05:40:17;100910.56;;;5.87;100.00
9059;BME280;4564;42.034;25.834;2023-03-01T05:42:44;100910.81;;;5.84;100.00
9059;BME280;4564;42.034;25.834;2023-03-01T05:45:11;100921.59;;;5.84;100.00
9059;BME280;4564;42.034;25.834;2023-03-01T05:47:39;100918.34;;;5.80;100.00
9059;BME280;4564;42.034;25.834;2023-03-01T05:50:09;100917.59;;;5.78;100.00
9059;BME280;4564;42.034;25.834;2023-03-01T05:52:38;100918.88;;;5.84;100.00
9059;BME280;4564;42.034;25.834;2023-03-01T05:55:05;100924.47;;;5.92;100.00
9059;BME280;4564;42.034;25.834;2023-03-01T05:57:32;100920.91;;;5.92;100.00
9059;BME280;4564;42.034;25.834;2023-03-01T05:59:58;100925.16;;;5.94;100.00
9059;BME280;4564;42.034;25.834;2023-03-01T06:02:25;100940.19;;;5.97;100.00
9059;BME280;4564;42.034;25.834;2023-03-01T06:04:52;100926.28;;;6.01;100.00
9059;BME280;4564;42.034;25.834;2023-03-01T06:07:19;100923.47;;;6.03;100.00
9059;BME280;4564;42.034;25.834;2023-03-01T06:09:47;100929.00;;;6.01;100.00
9059;BME280;4564;42.034;25.834;2023-03-01T06:12:13;100929.53;;;6.05;100.00
9059;BME280;4564;42.034;25.834;2023-03-01T06:14:40;100936.09;;;6.02;100.00
9059;BME280;4564;42.034;25.834;2023-03-01T06:17:06;100929.00;;;6.01;100.00
9059;BME280;4564;42.034;25.834;2023-03-01T06:19:33;100922.91;;;5.99;100.00
9059;BME280;4564;42.034;25.834;2023-03-01T06:22:00;100935.66;;;5.97;100.00
9059;BME280;4564;42.034;25.834;2023-03-01T06:24:26;100917.53;;;5.99;100.00
9059;BME280;4564;42.034;25.834;2023-03-01T06:26:55;100919.78;;;6.04;100.00
9059;BME280;4564;42.034;25.834;2023-03-01T06:29:22;100924.16;;;5.95;100.00
9059;BME280;4564;42.034;25.834;2023-03-01T06:31:49;100930.28;;;5.97;100.00
9059;BME280;4564;42.034;25.834;2023-03-01T06:34:16;100929.97;;;6.00;100.00
9059;BME280;4564;42.034;25.834;2023-03-01T06:36:42;100925.19;;;6.04;100.00
9059;BME280;4564;42.034;25.834;2023-03-01T06:39:09;100929.56;;;6.14;100.00
9059;BME280;4564;42.034;25.834;2023-03-01T06:41:35;100932.09;;;6.16;100.00
9059;BME280;4564;42.034;25.834;2023-03-01T06:44:04;100932.25;;;6.14;100.00
9059;BME280;4564;42.034;25.834;2023-03-01T06:46:30;100940.06;;;6.08;100.00
9059;BME280;4564;42.034;25.834;2023-03-01T06:48:57;100937.91;;;6.11;100.00
9059;BME280;4564;42.034;25.834;2023-03-01T06:51:23;100935.09;;;6.13;100.00
9059;BME280;4564;42.034;25.834;2023-03-01T06:53:50;100940.03;;;6.17;100.00
9059;BME280;4564;42.034;25.834;2023-03-01T06:56:17;100937.22;;;6.19;100.00
9059;BME280;4564;42.034;25.834;2023-03-01T06:58:43;100945.84;;;6.22;100.00
9059;BME280;4564;42.034;25.834;2023-03-01T07:01:11;100933.53;;;6.20;100.00
9059;BME280;4564;42.034;25.834;2023-03-01T07:03:38;100940.19;;;6.25;100.00
9059;BME280;4564;42.034;25.834;2023-03-01T07:06:05;100939.16;;;6.26;100.00
9059;BME280;4564;42.034;25.834;2023-03-01T07:08:31;100941.88;;;6.26;100.00
9059;BME280;4564;42.034;25.834;2023-03-01T07:10:58;100940.75;;;6.29;100.00
9059;BME280;4564;42.034;25.834;2023-03-01T07:13:27;100932.22;;;6.33;100.00
9059;BME280;4564;42.034;25.834;2023-03-01T07:15:54;100945.00;;;6.31;100.00
9059;BME280;4564;42.034;25.834;2023-03-01T07:18:22;100939.31;;;6.35;100.00
9059;BME280;4564;42.034;25.834;2023-03-01T07:20:49;100941.28;;;6.32;100.00
9059;BME280;4564;42.034;25.834;2023-03-01T07:23:15;100941.84;;;6.46;100.00
9059;BME280;4564;42.034;25.834;2023-03-01T07:25:42;100949.50;;;6.50;100.00
9059;BME280;4564;42.034;25.834;2023-03-01T07:28:08;100940.69;;;6.48;100.00
9059;BME280;4564;42.034;25.834;2023-03-01T07:30:35;100942.97;;;6.53;100.00
9059;BME280;4564;42.034;25.834;2023-03-01T07:33:02;100942.69;;;6.56;100.00
9059;BME280;4564;42.034;25.834;2023-03-01T07:35:29;100946.78;;;6.60;100.00
9059;BME280;4564;42.034;25.834;2023-03-01T07:37:58;100949.47;;;6.60;100.00
9059;BME280;4564;42.034;25.834;2023-03-01T07:40:25;100943.78;;;6.72;100.00
9059;BME280;4564;42.034;25.834;2023-03-01T07:42:54;100938.50;;;6.71;100.00
9059;BME280;4564;42.034;25.834;2023-03-01T07:45:21;100947.72;;;6.78;100.00
9059;BME280;4564;42.034;25.834;2023-03-01T07:47:47;100931.00;;;6.74;100.00
9059;BME280;4564;42.034;25.834;2023-03-01T07:50:16;100932.41;;;6.79;100.00
9059;BME280;4564;42.034;25.834;2023-03-01T07:52:45;100926.88;;;6.80;100.00
9059;BME280;4564;42.034;25.834;2023-03-01T07:55:12;100935.78;;;6.90;100.00
9059;BME280;4564;42.034;25.834;2023-03-01T07:57:39;100930.97;;;6.84;100.00
9059;BME280;4564;42.034;25.834;2023-03-01T08:00:06;100934.91;;;6.90;100.00
9059;BME280;4564;42.034;25.834;2023-03-01T08:02:33;100931.81;;;6.85;100.00
9059;BME280;4564;42.034;25.834;2023-03-01T08:05:00;100936.91;;;6.88;100.00
9059;BME280;4564;42.034;25.834;2023-03-01T08:07:26;100932.94;;;6.82;100.00
9059;BME280;4564;42.034;25.834;2023-03-01T08:09:54;100936.09;;;6.78;100.00
9059;BME280;4564;42.034;25.834;2023-03-01T08:12:21;100934.97;;;6.80;100.00
9059;BME280;4564;42.034;25.834;2023-03-01T08:14:48;100932.13;;;6.72;100.00
9059;BME280;4564;42.034;25.834;2023-03-01T08:17:16;100929.28;;;6.73;100.00
9059;BME280;4564;42.034;25.834;2023-03-01T08:19:43;100930.84;;;6.76;100.00
9059;BME280;4564;42.034;25.834;2023-03-01T08:22:09;100934.81;;;6.72;100.00
9059;BME280;4564;42.034;25.834;2023-03-01T08:24:36;100937.13;;;6.67;100.00
9059;BME280;4564;42.034;25.834;2023-03-01T08:27:04;100936.13;;;6.68;100.00
9059;BME280;4564;42.034;25.834;2023-03-01T08:29:31;100931.81;;;6.75;100.00
9059;BME280;4564;42.034;25.834;2023-03-01T08:31:57;100936.41;;;6.74;100.00
9059;BME280;4564;42.034;25.834;2023-03-01T08:34:25;100934.81;;;6.72;100.00
9059;BME280;4564;42.034;25.834;2023-03-01T08:36:52;100927.84;;;6.79;100.00
9059;BME280;4564;42.034;25.834;2023-03-01T08:39:19;100918.06;;;6.78;100.00
9059;BME280;4564;42.034;25.834;2023-03-01T08:41:46;100926.75;;;6.72;100.00
9059;BME280;4564;42.034;25.834;2023-03-01T08:44:14;100924.63;;;6.66;100.00
9059;BME280;4564;42.034;25.834;2023-03-01T08:46:43;100935.53;;;6.74;100.00
9059;BME280;4564;42.034;25.834;2023-03-01T08:49:11;100934.41;;;6.67;100.00
9059;BME280;4564;42.034;25.834;2023-03-01T08:51:38;100939.38;;;6.71;100.00
9059;BME280;4564;42.034;25.834;2023-03-01T08:54:05;100947.75;;;6.68;100.00
9059;BME280;4564;42.034;25.834;2023-03-01T08:56:32;100940.94;;;6.74;100.00
9059;BME280;4564;42.034;25.834;2023-03-01T08:58:59;100933.97;;;6.71;100.00
9059;BME280;4564;42.034;25.834;2023-03-01T09:01:27;100939.91;;;6.75;100.00
9059;BME280;4564;42.034;25.834;2023-03-01T09:03:54;100941.03;;;6.82;100.00
9059;BME280;4564;42.034;25.834;2023-03-01T09:06:20;100934.78;;;6.82;100.00
9059;BME280;4564;42.034;25.834;2023-03-01T09:08:47;100928.13;;;6.76;100.00
9059;BME280;4564;42.034;25.834;2023-03-01T09:11:15;100937.09;;;6.77;100.00
9059;BME280;4564;42.034;25.834;2023-03-01T09:13:42;100932.84;;;6.74;100.00
9059;BME280;4564;42.034;25.834;2023-03-01T09:16:09;100931.25;;;6.81;100.00
9059;BME280;4564;42.034;25.834;2023-03-01T09:18:38;100925.84;;;6.81;100.00
9059;BME280;4564;42.034;25.834;2023-03-01T09:21:06;100930.38;;;6.90;100.00
9059;BME280;4564;42.034;25.834;2023-03-01T09:23:33;100924.97;;;6.90;100.00
9059;BME280;4564;42.034;25.834;2023-03-01T09:26:01;100927.28;;;6.85;100.00
9059;BME280;4564;42.034;25.834;2023-03-01T09:28:28;100913.06;;;6.83;100.00
9059;BME280;4564;42.034;25.834;2023-03-01T09:30:57;100923.56;;;6.86;100.00
9059;BME280;4564;42.034;25.834;2023-03-01T09:33:23;100917.75;;;6.81;100.00
9059;BME280;4564;42.034;25.834;2023-03-01T09:35:56;100928.66;;;6.89;100.00
9059;BME280;4564;42.034;25.834;2023-03-01T09:38:23;100926.38;;;6.94;100.00
9059;BME280;4564;42.034;25.834;2023-03-01T09:40:50;100936.44;;;6.92;100.00
9059;BME280;4564;42.034;25.834;2023-03-01T09:43:18;100932.50;;;6.87;100.00
9059;BME280;4564;42.034;25.834;2023-03-01T09:45:47;100935.19;;;6.96;100.00
9059;BME280;4564;42.034;25.834;2023-03-01T09:48:16;100940.00;;;6.93;100.00
9059;BME280;4564;42.034;25.834;2023-03-01T09:50:47;100940.25;;;6.99;100.00
9059;BME280;4564;42.034;25.834;2023-03-01T09:53:17;100926.78;;;6.99;100.00
9059;BME280;4564;42.034;25.834;2023-03-01T09:55:45;100931.84;;;7.02;100.00
9059;BME280;4564;42.034;25.834;2023-03-01T09:58:24;100944.75;;;7.08;100.00
9059;BME280;4564;42.034;25.834;2023-03-01T10:00:56;100930.59;;;7.06;100.00
9059;BME280;4564;42.034;25.834;2023-03-01T10:03:24;100941.06;;;7.09;100.00
9059;BME280;4564;42.034;25.834;2023-03-01T10:05:54;100931.00;;;7.11;100.00
9059;BME280;4564;42.034;25.834;2023-03-01T10:08:28;100929.53;;;7.17;100.00
9059;BME280;4564;42.034;25.834;2023-03-01T10:10:56;100926.28;;;7.13;100.00
9059;BME280;4564;42.034;25.834;2023-03-01T10:13:24;100924.03;;;7.09;100.00
9059;BME280;4564;42.034;25.834;2023-03-01T10:15:53;100926.59;;;7.10;100.00
9059;BME280;4564;42.034;25.834;2023-03-01T10:18:21;100926.28;;;7.13;100.00
9059;BME280;4564;42.034;25.834;2023-03-01T10:20:51;100918.88;;;7.15;100.00
9059;BME280;4564;42.034;25.834;2023-03-01T10:23:18;100908.34;;;7.22;100.00
9059;BME280;4564;42.034;25.834;2023-03-01T10:25:51;100899.09;;;7.25;100.00
9059;BME280;4564;42.034;25.834;2023-03-01T10:28:23;100892.41;;;7.29;100.00
9059;BME280;4564;42.034;25.834;2023-03-01T10:30:51;100900.06;;;7.24;100.00
9059;BME280;4564;42.034;25.834;2023-03-01T10:33:20;100895.00;;;7.21;100.00
9059;BME280;4564;42.034;25.834;2023-03-01T10:35:47;100886.91;;;7.21;100.00
9059;BME280;4564;42.034;25.834;2023-03-01T10:38:15;100887.59;;;7.23;100.00
9059;BME280;4564;42.034;25.834;2023-03-01T10:40:52;100890.50;;;7.39;100.00
9059;BME280;4564;42.034;25.834;2023-03-01T10:43:20;100897.41;;;7.41;100.00
9059;BME280;4564;42.034;25.834;2023-03-01T10:45:47;100893.19;;;7.39;100.00
9059;BME280;4564;42.034;25.834;2023-03-01T10:48:14;100886.63;;;7.41;100.00
9059;BME280;4564;42.034;25.834;2023-03-01T10:50:42;100884.63;;;7.43;100.00
9059;BME280;4564;42.034;25.834;2023-03-01T10:53:22;100886.63;;;7.41;100.00
9059;BME280;4564;42.034;25.834;2023-03-01T10:56:00;100886.47;;;7.43;100.00
9059;BME280;4564;42.034;25.834;2023-03-01T10:58:27;100878.84;;;7.38;100.00
9059;BME280;4564;42.034;25.834;2023-03-01T11:00:55;100883.53;;;7.36;100.00
9059;BME280;4564;42.034;25.834;2023-03-01T11:03:22;100880.97;;;7.35;100.00
9059;BME280;4564;42.034;25.834;2023-03-01T11:05:54;100874.56;;;7.36;100.00
9059;BME280;4564;42.034;25.834;2023-03-01T11:08:32;100884.38;;;7.37;100.00
9059;BME280;4564;42.034;25.834;2023-03-01T11:13:49;100879.50;;;7.40;100.00
9059;BME280;4564;42.034;25.834;2023-03-01T11:16:17;100872.38;;;7.49;100.00
9059;BME280;4564;42.034;25.834;2023-03-01T11:18:55;100870.13;;;7.44;100.00
9059;BME280;4564;42.034;25.834;2023-03-01T11:21:22;100876.41;;;7.35;100.00
9059;BME280;4564;42.034;25.834;2023-03-01T11:23:49;100867.97;;;7.48;100.00
9059;BME280;4564;42.034;25.834;2023-03-01T11:26:17;100869.72;;;7.57;100.00
9059;BME280;4564;42.034;25.834;2023-03-01T11:28:45;100871.44;;;7.58;100.00
9059;BME280;4564;42.034;25.834;2023-03-01T11:31:17;100860.78;;;7.56;100.00
9059;BME280;4564;42.034;25.834;2023-03-01T11:33:46;100860.50;;;7.59;100.00
9059;BME280;4564;42.034;25.834;2023-03-01T11:36:16;100860.19;;;7.45;100.00
9059;BME280;4564;42.034;25.834;2023-03-01T11:38:43;100844.41;;;7.40;100.00
9059;BME280;4564;42.034;25.834;2023-03-01T11:41:13;100851.38;;;7.43;100.00
9059;BME280;4564;42.034;25.834;2023-03-01T11:43:44;100832.63;;;7.41;100.00
9059;BME280;4564;42.034;25.834;2023-03-01T11:46:27;100840.88;;;7.40;100.00
9059;BME280;4564;42.034;25.834;2023-03-01T11:49:00;100836.72;;;7.28;100.00
9059;BME280;4564;42.034;25.834;2023-03-01T11:51:36;100843.84;;;7.19;100.00
9059;BME280;4564;42.034;25.834;2023-03-01T11:54:18;100837.56;;;7.28;100.00
9059;BME280;4564;42.034;25.834;2023-03-01T11:56:50;100831.59;;;7.25;100.00
9059;BME280;4564;42.034;25.834;2023-03-01T11:59:26;100830.31;;;7.29;100.00
9059;BME280;4564;42.034;25.834;2023-03-01T12:04:52;100829.38;;;7.38;100.00
9059;BME280;4564;42.034;25.834;2023-03-01T12:07:20;100813.88;;;7.40;100.00
9059;BME280;4564;42.034;25.834;2023-03-01T12:09:55;100830.78;;;7.42;100.00
9059;BME280;4564;42.034;25.834;2023-03-01T12:12:30;100819.13;;;7.41;100.00
9059;BME280;4564;42.034;25.834;2023-03-01T12:15:18;100819.06;;;7.33;100.00
9059;BME280;4564;42.034;25.834;2023-03-01T12:20:40;100814.94;;;7.29;100.00
9059;BME280;4564;42.034;25.834;2023-03-01T12:23:26;100804.59;;;7.25;100.00
9059;BME280;4564;42.034;25.834;2023-03-01T12:25:55;100804.31;;;7.28;100.00
9059;BME280;4564;42.034;25.834;2023-03-01T12:28:31;100807.69;;;7.30;100.00
9059;BME280;4564;42.034;25.834;2023-03-01T12:31:03;100809.50;;;7.39;100.00
9059;BME280;4564;42.034;25.834;2023-03-01T12:33:37;100809.72;;;7.28;100.00
9059;BME280;4564;42.034;25.834;2023-03-01T12:39:10;100812.47;;;7.18;100.00
9059;BME280;4564;42.034;25.834;2023-03-01T12:41:43;100818.03;;;7.16;100.00
9059;BME280;4564;42.034;25.834;2023-03-01T12:44:15;100813.25;;;7.10;100.00
9059;BME280;4564;42.034;25.834;2023-03-01T12:46:57;100819.94;;;7.06;100.00
9059;BME280;4564;42.034;25.834;2023-03-01T12:49:30;100820.81;;;7.07;100.00
9059;BME280;4564;42.034;25.834;2023-03-01T12:52:00;100824.31;;;7.07;100.00
9059;BME280;4564;42.034;25.834;2023-03-01T12:54:29;100814.56;;;7.06;100.00
9059;BME280;4564;42.034;25.834;2023-03-01T12:56:57;100809.31;;;7.05;100.00
9059;BME280;4564;42.034;25.834;2023-03-01T12:59:30;100819.50;;;7.11;100.00
9059;BME280;4564;42.034;25.834;2023-03-01T13:02:01;100815.09;;;7.10;100.00
9059;BME280;4564;42.034;25.834;2023-03-01T13:04:30;100819.41;;;7.21;100.00
9059;BME280;4564;42.034;25.834;2023-03-01T13:07:08;100819.75;;;7.18;100.00
9059;BME280;4564;42.034;25.834;2023-03-01T13:09:40;100821.97;;;7.22;100.00
9059;BME280;4564;42.034;25.834;2023-03-01T13:14:54;100793.34;;;7.11;100.00
9059;BME280;4564;42.034;25.834;2023-03-01T13:17:31;100822.53;;;6.98;100.00
9059;BME280;4564;42.034;25.834;2023-03-01T13:19:57;100818.47;;;6.94;100.00
9059;BME280;4564;42.034;25.834;2023-03-01T13:22:25;100819.00;;;6.98;100.00